Terminal Aerodrome Forecast
Issued by NWS

Home | Current Version | Previous Version | Text Only | Print | Product List | Glossary On
Versions: 1 2 3 4 5 6 7 8 9 10 11 12 13 14
000
FTUS43 KDVN 012320
TAFBRL
TAF
KBRL 012320Z 0200/0224 23004KT P6SM BKN200
     FM020300 21005KT P6SM SCT200
     FM021100 22009KT P6SM VCTS SCT035CB BKN100
     FM021500 23014G18KT P6SM SCT150
     FM021700 23015G20KT P6SM SCT050=

USA.gov is the U.S. government's official web portal to all federal, state and local government web resources and services.